Time;durP1;ratioP1;P1;durP2;ratioP2;P2;SDS_P1;SDS_P2;PMS_P1;PMS_P2;Temp;Humidity;BMP_temperature;BMP_pressure;BME280_temperature;BME280_humidity;BME280_pressure;Samples;Min_cycle;Max_cycle;Signal;HPM_P1;HPM_P2
2021/04/18 00:00:29;;;;;;;15.95;13.65;;;;;;;4.29;80.22559;95354.72;;;;
2021/04/18 00:01:30;;;;;;;15.95;13.65;;;;;;;4.29;80.22559;95354.72;;;;
2021/04/18 00:02:31;;;;;;;15.95;13.65;;;;;;;4.29;80.22559;95354.72;;;;
2021/04/18 00:03:31;;;;;;;15.95;13.65;;;;;;;4.29;80.22559;95354.72;;;;
2021/04/18 00:04:32;;;;;;;15.05;13.5;;;;;;;4.28;80.50684;95340.64;;;;
2021/04/18 00:05:33;;;;;;;15.05;13.5;;;;;;;4.28;80.50684;95340.64;;;;
2021/04/18 00:06:33;;;;;;;15.05;13.5;;;;;;;4.28;80.50684;95340.64;;;;
2021/04/18 00:07:34;;;;;;;15.05;13.5;;;;;;;4.28;80.50684;95340.64;;;;
2021/04/18 00:08:35;;;;;;;15.05;13.5;;;;;;;4.28;80.50684;95340.64;;;;
2021/04/18 00:09:35;;;;;;;15.05;13.5;;;;;;;4.28;80.50684;95340.64;;;;
2021/04/18 00:10:36;;;;;;;15.05;13.5;;;;;;;4.28;80.50684;95340.64;;;;
2021/04/18 00:11:38;;;;;;;15.05;13.5;;;;;;;4.28;80.50684;95340.64;;;;
2021/04/18 00:12:39;;;;;;;15.05;13.5;;;;;;;4.28;80.50684;95340.64;;;;
2021/04/18 00:13:40;;;;;;;15.05;13.5;;;;;;;4.28;80.50684;95340.64;;;;
2021/04/18 00:14:41;;;;;;;15.05;13.5;;;;;;;4.28;80.50684;95340.64;;;;
2021/04/18 00:15:42;;;;;;;15.05;13.45;;;;;;;4.25;80.62891;95332.48;;;;
2021/04/18 00:16:43;;;;;;;15.05;13.45;;;;;;;4.25;80.62891;95332.48;;;;
2021/04/18 00:17:44;;;;;;;15.05;13.45;;;;;;;4.25;80.62891;95332.48;;;;
2021/04/18 00:18:44;;;;;;;15.05;13.45;;;;;;;4.25;80.62891;95332.48;;;;
2021/04/18 00:19:45;;;;;;;15.05;13.45;;;;;;;4.25;80.62891;95332.48;;;;
2021/04/18 00:20:46;;;;;;;15.05;13.45;;;;;;;4.25;80.62891;95332.48;;;;
2021/04/18 00:21:48;;;;;;;15.05;13.45;;;;;;;4.25;80.62891;95332.48;;;;
2021/04/18 00:22:49;;;;;;;15.05;13.45;;;;;;;4.25;80.62891;95332.48;;;;
2021/04/18 00:23:49;;;;;;;15.05;13.45;;;;;;;4.25;80.62891;95332.48;;;;
2021/04/18 00:24:50;;;;;;;15.05;13.45;;;;;;;4.25;80.62891;95332.48;;;;
2021/04/18 00:25:50;;;;;;;15.35;13.15;;;;;;;4.21;80.85156;95322.82;;;;
2021/04/18 00:26:52;;;;;;;15.35;13.15;;;;;;;4.21;80.85156;95322.82;;;;
2021/04/18 00:27:52;;;;;;;15.35;13.15;;;;;;;4.21;80.85156;95322.82;;;;
2021/04/18 00:28:53;;;;;;;15.35;13.15;;;;;;;4.21;80.85156;95322.82;;;;
2021/04/18 00:29:53;;;;;;;15.35;13.15;;;;;;;4.21;80.85156;95322.82;;;;
2021/04/18 00:30:54;;;;;;;15.35;13.15;;;;;;;4.21;80.85156;95322.82;;;;
2021/04/18 00:31:54;;;;;;;15.35;13.15;;;;;;;4.21;80.85156;95322.82;;;;
2021/04/18 00:32:55;;;;;;;15.35;13.15;;;;;;;4.21;80.85156;95322.82;;;;
2021/04/18 00:33:55;;;;;;;15.35;13.15;;;;;;;4.21;80.85156;95322.82;;;;
2021/04/18 00:34:56;;;;;;;15.35;13.15;;;;;;;4.21;80.85156;95322.82;;;;
2021/04/18 00:35:56;;;;;;;15.35;13.15;;;;;;;4.21;80.85156;95322.82;;;;
2021/04/18 00:36:57;;;;;;;16.95;13.8;;;;;;;4.16;81.0957;95311.87;;;;
2021/04/18 00:37:57;;;;;;;16.95;13.8;;;;;;;4.16;81.0957;95311.87;;;;
2021/04/18 00:38:58;;;;;;;16.95;13.8;;;;;;;4.16;81.0957;95311.87;;;;
2021/04/18 00:39:59;;;;;;;16.95;13.8;;;;;;;4.16;81.0957;95311.87;;;;
2021/04/18 00:40:59;;;;;;;16.95;13.8;;;;;;;4.16;81.0957;95311.87;;;;
2021/04/18 00:42:00;;;;;;;16.95;13.8;;;;;;;4.16;81.0957;95311.87;;;;
2021/04/18 00:43:01;;;;;;;16.95;13.8;;;;;;;4.16;81.0957;95311.87;;;;
2021/04/18 00:44:01;;;;;;;16.95;13.8;;;;;;;4.16;81.0957;95311.87;;;;
2021/04/18 00:45:02;;;;;;;16.95;13.8;;;;;;;4.16;81.0957;95311.87;;;;
2021/04/18 00:46:03;;;;;;;16.95;13.8;;;;;;;4.16;81.0957;95311.87;;;;
2021/04/18 00:47:04;;;;;;;16.95;13.8;;;;;;;4.16;81.0957;95311.87;;;;
2021/04/18 00:48:05;;;;;;;17.25;14.15;;;;;;;4.01;81.39355;95313.31;;;;
2021/04/18 00:49:06;;;;;;;17.25;14.15;;;;;;;4.01;81.39355;95313.31;;;;
2021/04/18 00:50:08;;;;;;;17.25;14.15;;;;;;;4.01;81.39355;95313.31;;;;
2021/04/18 00:51:10;;;;;;;17.25;14.15;;;;;;;4.01;81.39355;95313.31;;;;
2021/04/18 00:52:11;;;;;;;17.25;14.15;;;;;;;4.01;81.39355;95313.31;;;;
2021/04/18 00:53:12;;;;;;;17.25;14.15;;;;;;;4.01;81.39355;95313.31;;;;
2021/04/18 00:54:13;;;;;;;17.25;14.15;;;;;;;4.01;81.39355;95313.31;;;;
2021/04/18 00:55:13;;;;;;;17.25;14.15;;;;;;;4.01;81.39355;95313.31;;;;
2021/04/18 00:56:14;;;;;;;17.25;14.15;;;;;;;4.01;81.39355;95313.31;;;;
2021/04/18 00:57:15;;;;;;;17.25;14.15;;;;;;;4.01;81.39355;95313.31;;;;
2021/04/18 00:58:16;;;;;;;18.65;14.7;;;;;;;3.89;81.86426;95320.63;;;;
2021/04/18 00:59:16;;;;;;;18.65;14.7;;;;;;;3.89;81.86426;95320.63;;;;
2021/04/18 01:00:17;;;;;;;18.65;14.7;;;;;;;3.89;81.86426;95320.63;;;;
2021/04/18 01:01:18;;;;;;;18.65;14.7;;;;;;;3.89;81.86426;95320.63;;;;
2021/04/18 01:02:19;;;;;;;18.65;14.7;;;;;;;3.89;81.86426;95320.63;;;;
2021/04/18 01:03:19;;;;;;;18.65;14.7;;;;;;;3.89;81.86426;95320.63;;;;
2021/04/18 01:04:20;;;;;;;18.65;14.7;;;;;;;3.89;81.86426;95320.63;;;;
2021/04/18 01:05:21;;;;;;;18.65;14.7;;;;;;;3.89;81.86426;95320.63;;;;
2021/04/18 01:06:21;;;;;;;18.65;14.7;;;;;;;3.89;81.86426;95320.63;;;;
2021/04/18 01:07:22;;;;;;;18.65;14.7;;;;;;;3.89;81.86426;95320.63;;;;
2021/04/18 01:08:23;;;;;;;18.65;14.7;;;;;;;3.89;81.86426;95320.63;;;;
2021/04/18 01:09:23;;;;;;;16.35;14.15;;;;;;;3.79;82.28809;95309.47;;;;
2021/04/18 01:10:24;;;;;;;16.35;14.15;;;;;;;3.79;82.28809;95309.47;;;;
2021/04/18 01:11:25;;;;;;;16.35;14.15;;;;;;;3.79;82.28809;95309.47;;;;
2021/04/18 01:12:25;;;;;;;16.35;14.15;;;;;;;3.79;82.28809;95309.47;;;;
2021/04/18 01:13:26;;;;;;;16.35;14.15;;;;;;;3.79;82.28809;95309.47;;;;
2021/04/18 01:14:27;;;;;;;16.35;14.15;;;;;;;3.79;82.28809;95309.47;;;;
2021/04/18 01:15:27;;;;;;;16.35;14.15;;;;;;;3.79;82.28809;95309.47;;;;
2021/04/18 01:16:28;;;;;;;16.35;14.15;;;;;;;3.79;82.28809;95309.47;;;;
2021/04/18 01:17:29;;;;;;;16.35;14.15;;;;;;;3.79;82.28809;95309.47;;;;
2021/04/18 01:18:29;;;;;;;16.35;14.15;;;;;;;3.79;82.28809;95309.47;;;;
2021/04/18 01:19:30;;;;;;;19.35;15.45;;;;;;;3.71;82.63086;95299.34;;;;
2021/04/18 01:20:30;;;;;;;19.35;15.45;;;;;;;3.71;82.63086;95299.34;;;;
2021/04/18 01:21:31;;;;;;;19.35;15.45;;;;;;;3.71;82.63086;95299.34;;;;
2021/04/18 01:22:31;;;;;;;19.35;15.45;;;;;;;3.71;82.63086;95299.34;;;;
2021/04/18 01:23:32;;;;;;;19.35;15.45;;;;;;;3.71;82.63086;95299.34;;;;
2021/04/18 01:24:32;;;;;;;19.35;15.45;;;;;;;3.71;82.63086;95299.34;;;;
2021/04/18 01:25:33;;;;;;;19.35;15.45;;;;;;;3.71;82.63086;95299.34;;;;
2021/04/18 01:26:38;;;;;;;19.35;15.45;;;;;;;3.71;82.63086;95299.34;;;;
2021/04/18 01:27:42;;;;;;;19.35;15.45;;;;;;;3.71;82.63086;95299.34;;;;
2021/04/18 01:28:44;;;;;;;19.35;15.45;;;;;;;3.71;82.63086;95299.34;;;;
2021/04/18 01:29:45;;;;;;;19.35;15.45;;;;;;;3.71;82.63086;95299.34;;;;
2021/04/18 01:30:45;;;;;;;20.65;15.95;;;;;;;3.64;82.93066;95292.3;;;;
2021/04/18 01:31:46;;;;;;;20.65;15.95;;;;;;;3.64;82.93066;95292.3;;;;
2021/04/18 01:32:47;;;;;;;20.65;15.95;;;;;;;3.64;82.93066;95292.3;;;;
2021/04/18 01:33:49;;;;;;;20.65;15.95;;;;;;;3.64;82.93066;95292.3;;;;
2021/04/18 01:34:50;;;;;;;20.65;15.95;;;;;;;3.64;82.93066;95292.3;;;;
2021/04/18 01:35:51;;;;;;;20.65;15.95;;;;;;;3.64;82.93066;95292.3;;;;
2021/04/18 01:36:52;;;;;;;20.65;15.95;;;;;;;3.64;82.93066;95292.3;;;;
2021/04/18 01:37:53;;;;;;;20.65;15.95;;;;;;;3.64;82.93066;95292.3;;;;
2021/04/18 01:38:53;;;;;;;20.65;15.95;;;;;;;3.64;82.93066;95292.3;;;;
2021/04/18 01:39:55;;;;;;;20.65;15.95;;;;;;;3.64;82.93066;95292.3;;;;
2021/04/18 01:40:55;;;;;;;20.45;16.7;;;;;;;3.57;83.25195;95284.33;;;;
2021/04/18 01:41:56;;;;;;;20.45;16.7;;;;;;;3.57;83.25195;95284.33;;;;
2021/04/18 01:42:56;;;;;;;20.45;16.7;;;;;;;3.57;83.25195;95284.33;;;;
2021/04/18 01:43:57;;;;;;;20.45;16.7;;;;;;;3.57;83.25195;95284.33;;;;
2021/04/18 01:44:57;;;;;;;20.45;16.7;;;;;;;3.57;83.25195;95284.33;;;;
2021/04/18 01:45:58;;;;;;;20.45;16.7;;;;;;;3.57;83.25195;95284.33;;;;
2021/04/18 01:46:58;;;;;;;20.45;16.7;;;;;;;3.57;83.25195;95284.33;;;;
2021/04/18 01:48:00;;;;;;;20.45;16.7;;;;;;;3.57;83.25195;95284.33;;;;
2021/04/18 01:49:00;;;;;;;20.45;16.7;;;;;;;3.57;83.25195;95284.33;;;;
2021/04/18 01:50:01;;;;;;;20.45;16.7;;;;;;;3.57;83.25195;95284.33;;;;
2021/04/18 01:51:02;;;;;;;20.45;16.7;;;;;;;3.57;83.25195;95284.33;;;;
2021/04/18 01:52:04;;;;;;;21.5;16.05;;;;;;;3.51;83.51465;95285.92;;;;
2021/04/18 01:53:06;;;;;;;21.5;16.05;;;;;;;3.51;83.51465;95285.92;;;;
2021/04/18 01:54:06;;;;;;;21.5;16.05;;;;;;;3.51;83.51465;95285.92;;;;
2021/04/18 01:55:07;;;;;;;21.5;16.05;;;;;;;3.51;83.51465;95285.92;;;;
2021/04/18 01:56:09;;;;;;;21.5;16.05;;;;;;;3.51;83.51465;95285.92;;;;
2021/04/18 01:57:09;;;;;;;21.5;16.05;;;;;;;3.51;83.51465;95285.92;;;;
2021/04/18 01:58:10;;;;;;;21.5;16.05;;;;;;;3.51;83.51465;95285.92;;;;
2021/04/18 01:59:11;;;;;;;21.5;16.05;;;;;;;3.51;83.51465;95285.92;;;;
2021/04/18 02:00:11;;;;;;;21.5;16.05;;;;;;;3.51;83.51465;95285.92;;;;
2021/04/18 02:01:13;;;;;;;21.5;16.05;;;;;;;3.51;83.51465;95285.92;;;;
2021/04/18 02:02:14;;;;;;;23.5;16.55;;;;;;;3.45;83.78711;95285.38;;;;
2021/04/18 02:03:15;;;;;;;23.5;16.55;;;;;;;3.45;83.78711;95285.38;;;;
2021/04/18 02:04:15;;;;;;;23.5;16.55;;;;;;;3.45;83.78711;95285.38;;;;
2021/04/18 02:05:18;;;;;;;23.5;16.55;;;;;;;3.45;83.78711;95285.38;;;;
2021/04/18 02:06:19;;;;;;;23.5;16.55;;;;;;;3.45;83.78711;95285.38;;;;
2021/04/18 02:07:20;;;;;;;23.5;16.55;;;;;;;3.45;83.78711;95285.38;;;;
2021/04/18 02:08:21;;;;;;;23.5;16.55;;;;;;;3.45;83.78711;95285.38;;;;
2021/04/18 02:09:22;;;;;;;23.5;16.55;;;;;;;3.45;83.78711;95285.38;;;;
2021/04/18 02:10:22;;;;;;;23.5;16.55;;;;;;;3.45;83.78711;95285.38;;;;
2021/04/18 02:11:23;;;;;;;23.5;16.55;;;;;;;3.45;83.78711;95285.38;;;;
2021/04/18 02:12:24;;;;;;;23.5;16.55;;;;;;;3.45;83.78711;95285.38;;;;
2021/04/18 02:13:24;;;;;;;23.15;17.1;;;;;;;3.4;84.02734;95294.06;;;;
2021/04/18 02:14:25;;;;;;;23.15;17.1;;;;;;;3.4;84.02734;95294.06;;;;
2021/04/18 02:15:26;;;;;;;23.15;17.1;;;;;;;3.4;84.02734;95294.06;;;;
2021/04/18 02:16:27;;;;;;;23.15;17.1;;;;;;;3.4;84.02734;95294.06;;;;
2021/04/18 02:17:27;;;;;;;23.15;17.1;;;;;;;3.4;84.02734;95294.06;;;;
2021/04/18 02:18:28;;;;;;;23.15;17.1;;;;;;;3.4;84.02734;95294.06;;;;
2021/04/18 02:19:28;;;;;;;23.15;17.1;;;;;;;3.4;84.02734;95294.06;;;;
2021/04/18 02:20:29;;;;;;;23.15;17.1;;;;;;;3.4;84.02734;95294.06;;;;
2021/04/18 02:21:30;;;;;;;23.15;17.1;;;;;;;3.4;84.02734;95294.06;;;;
2021/04/18 02:22:30;;;;;;;23.15;17.1;;;;;;;3.4;84.02734;95294.06;;;;
2021/04/18 02:23:32;;;;;;;22.9;16.9;;;;;;;3.39;84.2041;95291.47;;;;
2021/04/18 02:24:32;;;;;;;22.9;16.9;;;;;;;3.39;84.2041;95291.47;;;;
2021/04/18 02:25:33;;;;;;;22.9;16.9;;;;;;;3.39;84.2041;95291.47;;;;
2021/04/18 02:26:33;;;;;;;22.9;16.9;;;;;;;3.39;84.2041;95291.47;;;;
2021/04/18 02:27:34;;;;;;;22.9;16.9;;;;;;;3.39;84.2041;95291.47;;;;
2021/04/18 02:28:34;;;;;;;22.9;16.9;;;;;;;3.39;84.2041;95291.47;;;;
2021/04/18 02:29:35;;;;;;;22.9;16.9;;;;;;;3.39;84.2041;95291.47;;;;
2021/04/18 02:30:35;;;;;;;22.9;16.9;;;;;;;3.39;84.2041;95291.47;;;;
2021/04/18 02:31:36;;;;;;;22.9;16.9;;;;;;;3.39;84.2041;95291.47;;;;
2021/04/18 02:32:36;;;;;;;22.9;16.9;;;;;;;3.39;84.2041;95291.47;;;;
2021/04/18 02:33:37;;;;;;;22.9;16.9;;;;;;;3.39;84.2041;95291.47;;;;
2021/04/18 02:34:38;;;;;;;25.45;17.65;;;;;;;3.36;84.42969;95298.12;;;;
2021/04/18 02:35:38;;;;;;;25.45;17.65;;;;;;;3.36;84.42969;95298.12;;;;
2021/04/18 02:36:39;;;;;;;25.45;17.65;;;;;;;3.36;84.42969;95298.12;;;;
2021/04/18 02:37:40;;;;;;;25.45;17.65;;;;;;;3.36;84.42969;95298.12;;;;
2021/04/18 02:38:40;;;;;;;25.45;17.65;;;;;;;3.36;84.42969;95298.12;;;;
2021/04/18 02:39:41;;;;;;;25.45;17.65;;;;;;;3.36;84.42969;95298.12;;;;
2021/04/18 02:40:41;;;;;;;25.45;17.65;;;;;;;3.36;84.42969;95298.12;;;;
2021/04/18 02:41:42;;;;;;;25.45;17.65;;;;;;;3.36;84.42969;95298.12;;;;
2021/04/18 02:42:43;;;;;;;25.45;17.65;;;;;;;3.36;84.42969;95298.12;;;;
2021/04/18 02:43:43;;;;;;;25.45;17.65;;;;;;;3.36;84.42969;95298.12;;;;
2021/04/18 02:44:45;;;;;;;24.2;17.6;;;;;;;3.46;84.59473;95287.93;;;;
2021/04/18 02:45:45;;;;;;;24.2;17.6;;;;;;;3.46;84.59473;95287.93;;;;
2021/04/18 02:46:46;;;;;;;24.2;17.6;;;;;;;3.46;84.59473;95287.93;;;;
2021/04/18 02:47:47;;;;;;;24.2;17.6;;;;;;;3.46;84.59473;95287.93;;;;
2021/04/18 02:48:47;;;;;;;24.2;17.6;;;;;;;3.46;84.59473;95287.93;;;;
2021/04/18 02:49:48;;;;;;;24.2;17.6;;;;;;;3.46;84.59473;95287.93;;;;
2021/04/18 02:50:48;;;;;;;24.2;17.6;;;;;;;3.46;84.59473;95287.93;;;;
2021/04/18 02:51:49;;;;;;;24.2;17.6;;;;;;;3.46;84.59473;95287.93;;;;
2021/04/18 02:52:49;;;;;;;24.2;17.6;;;;;;;3.46;84.59473;95287.93;;;;
2021/04/18 02:53:50;;;;;;;24.2;17.6;;;;;;;3.46;84.59473;95287.93;;;;
2021/04/18 02:54:51;;;;;;;24.2;17.6;;;;;;;3.46;84.59473;95287.93;;;;
2021/04/18 02:55:52;;;;;;;23.9;18.3;;;;;;;3.46;84.54199;95284.84;;;;
2021/04/18 02:56:52;;;;;;;23.9;18.3;;;;;;;3.46;84.54199;95284.84;;;;
2021/04/18 02:57:53;;;;;;;23.9;18.3;;;;;;;3.46;84.54199;95284.84;;;;
2021/04/18 02:58:54;;;;;;;23.9;18.3;;;;;;;3.46;84.54199;95284.84;;;;
2021/04/18 02:59:55;;;;;;;23.9;18.3;;;;;;;3.46;84.54199;95284.84;;;;
2021/04/18 03:00:55;;;;;;;23.9;18.3;;;;;;;3.46;84.54199;95284.84;;;;
2021/04/18 03:01:56;;;;;;;23.9;18.3;;;;;;;3.46;84.54199;95284.84;;;;
2021/04/18 03:02:56;;;;;;;23.9;18.3;;;;;;;3.46;84.54199;95284.84;;;;
2021/04/18 03:03:57;;;;;;;23.9;18.3;;;;;;;3.46;84.54199;95284.84;;;;
2021/04/18 03:05:00;;;;;;;23.9;18.3;;;;;;;3.46;84.54199;95284.84;;;;
2021/04/18 03:06:00;;;;;;;23.4;17.4;;;;;;;3.53;84.84082;95279.47;;;;
2021/04/18 03:07:01;;;;;;;23.4;17.4;;;;;;;3.53;84.84082;95279.47;;;;
2021/04/18 03:08:01;;;;;;;23.4;17.4;;;;;;;3.53;84.84082;95279.47;;;;
2021/04/18 03:09:02;;;;;;;23.4;17.4;;;;;;;3.53;84.84082;95279.47;;;;
2021/04/18 03:10:04;;;;;;;23.4;17.4;;;;;;;3.53;84.84082;95279.47;;;;
2021/04/18 03:11:06;;;;;;;23.4;17.4;;;;;;;3.53;84.84082;95279.47;;;;
2021/04/18 03:12:06;;;;;;;23.4;17.4;;;;;;;3.53;84.84082;95279.47;;;;
2021/04/18 03:13:08;;;;;;;23.4;17.4;;;;;;;3.53;84.84082;95279.47;;;;
2021/04/18 03:14:08;;;;;;;23.4;17.4;;;;;;;3.53;84.84082;95279.47;;;;
2021/04/18 03:15:09;;;;;;;23.4;17.4;;;;;;;3.53;84.84082;95279.47;;;;
2021/04/18 03:16:12;;;;;;;23.4;17.4;;;;;;;3.53;84.84082;95279.47;;;;
2021/04/18 03:17:12;;;;;;;24.1;18.2;;;;;;;3.51;84.88086;95277;;;;
2021/04/18 03:18:13;;;;;;;24.1;18.2;;;;;;;3.51;84.88086;95277;;;;
2021/04/18 03:19:13;;;;;;;24.1;18.2;;;;;;;3.51;84.88086;95277;;;;
2021/04/18 03:20:14;;;;;;;24.1;18.2;;;;;;;3.51;84.88086;95277;;;;
2021/04/18 03:21:15;;;;;;;24.1;18.2;;;;;;;3.51;84.88086;95277;;;;
2021/04/18 03:22:16;;;;;;;24.1;18.2;;;;;;;3.51;84.88086;95277;;;;
2021/04/18 03:23:16;;;;;;;24.1;18.2;;;;;;;3.51;84.88086;95277;;;;
2021/04/18 03:24:17;;;;;;;24.1;18.2;;;;;;;3.51;84.88086;95277;;;;
2021/04/18 03:25:17;;;;;;;24.1;18.2;;;;;;;3.51;84.88086;95277;;;;
2021/04/18 03:26:18;;;;;;;24.1;18.2;;;;;;;3.51;84.88086;95277;;;;
2021/04/18 03:27:19;;;;;;;23.75;17.4;;;;;;;3.57;85.18359;95276.31;;;;
2021/04/18 03:28:19;;;;;;;23.75;17.4;;;;;;;3.57;85.18359;95276.31;;;;
2021/04/18 03:29:20;;;;;;;23.75;17.4;;;;;;;3.57;85.18359;95276.31;;;;
2021/04/18 03:30:20;;;;;;;23.75;17.4;;;;;;;3.57;85.18359;95276.31;;;;
2021/04/18 03:31:21;;;;;;;23.75;17.4;;;;;;;3.57;85.18359;95276.31;;;;
2021/04/18 03:32:21;;;;;;;23.75;17.4;;;;;;;3.57;85.18359;95276.31;;;;
2021/04/18 03:33:22;;;;;;;23.75;17.4;;;;;;;3.57;85.18359;95276.31;;;;
2021/04/18 03:34:23;;;;;;;23.75;17.4;;;;;;;3.57;85.18359;95276.31;;;;
2021/04/18 03:35:24;;;;;;;23.75;17.4;;;;;;;3.57;85.18359;95276.31;;;;
2021/04/18 03:36:25;;;;;;;23.75;17.4;;;;;;;3.57;85.18359;95276.31;;;;
2021/04/18 03:37:25;;;;;;;23.75;17.4;;;;;;;3.57;85.18359;95276.31;;;;
2021/04/18 03:38:26;;;;;;;27.75;18.6;;;;;;;3.63;85.19629;95279.57;;;;
2021/04/18 03:39:26;;;;;;;27.75;18.6;;;;;;;3.63;85.19629;95279.57;;;;
2021/04/18 03:40:27;;;;;;;27.75;18.6;;;;;;;3.63;85.19629;95279.57;;;;
2021/04/18 03:41:27;;;;;;;27.75;18.6;;;;;;;3.63;85.19629;95279.57;;;;
2021/04/18 03:42:28;;;;;;;27.75;18.6;;;;;;;3.63;85.19629;95279.57;;;;
2021/04/18 03:43:28;;;;;;;27.75;18.6;;;;;;;3.63;85.19629;95279.57;;;;
2021/04/18 03:44:29;;;;;;;27.75;18.6;;;;;;;3.63;85.19629;95279.57;;;;
2021/04/18 03:45:30;;;;;;;27.75;18.6;;;;;;;3.63;85.19629;95279.57;;;;
2021/04/18 03:46:30;;;;;;;27.75;18.6;;;;;;;3.63;85.19629;95279.57;;;;
2021/04/18 03:47:31;;;;;;;27.75;18.6;;;;;;;3.63;85.19629;95279.57;;;;
2021/04/18 03:48:31;;;;;;;27.75;18.6;;;;;;;3.63;85.19629;95279.57;;;;
2021/04/18 03:49:32;;;;;;;25.05;18.1;;;;;;;3.68;85.34277;95279.3;;;;
2021/04/18 03:50:32;;;;;;;25.05;18.1;;;;;;;3.68;85.34277;95279.3;;;;
2021/04/18 03:51:33;;;;;;;25.05;18.1;;;;;;;3.68;85.34277;95279.3;;;;
2021/04/18 03:52:34;;;;;;;25.05;18.1;;;;;;;3.68;85.34277;95279.3;;;;
2021/04/18 03:53:34;;;;;;;25.05;18.1;;;;;;;3.68;85.34277;95279.3;;;;
2021/04/18 03:54:35;;;;;;;25.05;18.1;;;;;;;3.68;85.34277;95279.3;;;;
2021/04/18 03:55:35;;;;;;;25.05;18.1;;;;;;;3.68;85.34277;95279.3;;;;
2021/04/18 03:56:36;;;;;;;25.05;18.1;;;;;;;3.68;85.34277;95279.3;;;;
2021/04/18 03:57:36;;;;;;;25.05;18.1;;;;;;;3.68;85.34277;95279.3;;;;
2021/04/18 03:58:37;;;;;;;25.05;18.1;;;;;;;3.68;85.34277;95279.3;;;;
2021/04/18 03:59:38;;;;;;;24.54999;18.6;;;;;;;3.66;85.47461;95279.08;;;;
2021/04/18 04:00:38;;;;;;;24.54999;18.6;;;;;;;3.66;85.47461;95279.08;;;;
2021/04/18 04:01:39;;;;;;;24.54999;18.6;;;;;;;3.66;85.47461;95279.08;;;;
2021/04/18 04:02:39;;;;;;;24.54999;18.6;;;;;;;3.66;85.47461;95279.08;;;;
2021/04/18 04:03:40;;;;;;;24.54999;18.6;;;;;;;3.66;85.47461;95279.08;;;;
2021/04/18 04:04:40;;;;;;;24.54999;18.6;;;;;;;3.66;85.47461;95279.08;;;;
2021/04/18 04:05:41;;;;;;;24.54999;18.6;;;;;;;3.66;85.47461;95279.08;;;;
2021/04/18 04:06:41;;;;;;;24.54999;18.6;;;;;;;3.66;85.47461;95279.08;;;;
2021/04/18 04:07:42;;;;;;;24.54999;18.6;;;;;;;3.66;85.47461;95279.08;;;;
2021/04/18 04:08:42;;;;;;;24.54999;18.6;;;;;;;3.66;85.47461;95279.08;;;;
2021/04/18 04:09:43;;;;;;;24.54999;18.6;;;;;;;3.66;85.47461;95279.08;;;;
2021/04/18 04:10:43;;;;;;;28.95;20.05;;;;;;;3.64;85.75488;95273.19;;;;
2021/04/18 04:11:44;;;;;;;28.95;20.05;;;;;;;3.64;85.75488;95273.19;;;;
2021/04/18 04:12:45;;;;;;;28.95;20.05;;;;;;;3.64;85.75488;95273.19;;;;
2021/04/18 04:13:45;;;;;;;28.95;20.05;;;;;;;3.64;85.75488;95273.19;;;;
2021/04/18 04:14:46;;;;;;;28.95;20.05;;;;;;;3.64;85.75488;95273.19;;;;
2021/04/18 04:15:46;;;;;;;28.95;20.05;;;;;;;3.64;85.75488;95273.19;;;;
2021/04/18 04:16:47;;;;;;;28.95;20.05;;;;;;;3.64;85.75488;95273.19;;;;
2021/04/18 04:17:47;;;;;;;28.95;20.05;;;;;;;3.64;85.75488;95273.19;;;;
2021/04/18 04:18:48;;;;;;;28.95;20.05;;;;;;;3.64;85.75488;95273.19;;;;
2021/04/18 04:19:49;;;;;;;28.95;20.05;;;;;;;3.64;85.75488;95273.19;;;;
2021/04/18 04:20:49;;;;;;;28.4;21.6;;;;;;;3.64;86.05859;95279.78;;;;
2021/04/18 04:21:50;;;;;;;28.4;21.6;;;;;;;3.64;86.05859;95279.78;;;;
2021/04/18 04:22:50;;;;;;;28.4;21.6;;;;;;;3.64;86.05859;95279.78;;;;
2021/04/18 04:23:51;;;;;;;28.4;21.6;;;;;;;3.64;86.05859;95279.78;;;;
2021/04/18 04:24:51;;;;;;;28.4;21.6;;;;;;;3.64;86.05859;95279.78;;;;
2021/04/18 04:25:53;;;;;;;28.4;21.6;;;;;;;3.64;86.05859;95279.78;;;;
2021/04/18 04:26:54;;;;;;;28.4;21.6;;;;;;;3.64;86.05859;95279.78;;;;
2021/04/18 04:27:54;;;;;;;28.4;21.6;;;;;;;3.64;86.05859;95279.78;;;;
2021/04/18 04:28:55;;;;;;;28.4;21.6;;;;;;;3.64;86.05859;95279.78;;;;
2021/04/18 04:29:55;;;;;;;28.4;21.6;;;;;;;3.64;86.05859;95279.78;;;;
2021/04/18 04:30:57;;;;;;;28.4;21.6;;;;;;;3.64;86.05859;95279.78;;;;
2021/04/18 04:31:57;;;;;;;28.55;21.25;;;;;;;3.62;86.18164;95276.47;;;;
2021/04/18 04:32:58;;;;;;;28.55;21.25;;;;;;;3.62;86.18164;95276.47;;;;
2021/04/18 04:33:58;;;;;;;28.55;21.25;;;;;;;3.62;86.18164;95276.47;;;;
2021/04/18 04:34:59;;;;;;;28.55;21.25;;;;;;;3.62;86.18164;95276.47;;;;
2021/04/18 04:35:59;;;;;;;28.55;21.25;;;;;;;3.62;86.18164;95276.47;;;;
2021/04/18 04:37:00;;;;;;;28.55;21.25;;;;;;;3.62;86.18164;95276.47;;;;
2021/04/18 04:38:01;;;;;;;28.55;21.25;;;;;;;3.62;86.18164;95276.47;;;;
2021/04/18 04:39:01;;;;;;;28.55;21.25;;;;;;;3.62;86.18164;95276.47;;;;
2021/04/18 04:40:02;;;;;;;28.55;21.25;;;;;;;3.62;86.18164;95276.47;;;;
2021/04/18 04:41:05;;;;;;;28.55;21.25;;;;;;;3.62;86.18164;95276.47;;;;
2021/04/18 04:42:05;;;;;;;27.85;21;;;;;;;3.63;86.36328;95288.79;;;;
2021/04/18 04:43:06;;;;;;;27.85;21;;;;;;;3.63;86.36328;95288.79;;;;
2021/04/18 04:44:08;;;;;;;27.85;21;;;;;;;3.63;86.36328;95288.79;;;;
2021/04/18 04:45:09;;;;;;;27.85;21;;;;;;;3.63;86.36328;95288.79;;;;
2021/04/18 04:46:10;;;;;;;27.85;21;;;;;;;3.63;86.36328;95288.79;;;;
2021/04/18 04:47:11;;;;;;;27.85;21;;;;;;;3.63;86.36328;95288.79;;;;
2021/04/18 04:48:12;;;;;;;27.85;21;;;;;;;3.63;86.36328;95288.79;;;;
2021/04/18 04:49:12;;;;;;;27.85;21;;;;;;;3.63;86.36328;95288.79;;;;
2021/04/18 04:50:13;;;;;;;27.85;21;;;;;;;3.63;86.36328;95288.79;;;;
2021/04/18 04:51:14;;;;;;;27.85;21;;;;;;;3.63;86.36328;95288.79;;;;
2021/04/18 04:52:14;;;;;;;27.85;21;;;;;;;3.63;86.36328;95288.79;;;;
2021/04/18 04:53:15;;;;;;;28.1;21;;;;;;;3.63;86.59375;95284.78;;;;
2021/04/18 04:54:16;;;;;;;28.1;21;;;;;;;3.63;86.59375;95284.78;;;;
2021/04/18 04:55:17;;;;;;;28.1;21;;;;;;;3.63;86.59375;95284.78;;;;
2021/04/18 04:56:18;;;;;;;28.1;21;;;;;;;3.63;86.59375;95284.78;;;;
2021/04/18 04:57:18;;;;;;;28.1;21;;;;;;;3.63;86.59375;95284.78;;;;
2021/04/18 04:58:19;;;;;;;28.1;21;;;;;;;3.63;86.59375;95284.78;;;;
2021/04/18 04:59:20;;;;;;;28.1;21;;;;;;;3.63;86.59375;95284.78;;;;
2021/04/18 05:00:20;;;;;;;28.1;21;;;;;;;3.63;86.59375;95284.78;;;;
2021/04/18 05:01:22;;;;;;;28.1;21;;;;;;;3.63;86.59375;95284.78;;;;
2021/04/18 05:02:23;;;;;;;28.1;21;;;;;;;3.63;86.59375;95284.78;;;;
2021/04/18 05:03:25;;;;;;;28.1;21;;;;;;;3.63;86.59375;95284.78;;;;
2021/04/18 05:04:26;;;;;;;29.65;21.3;;;;;;;3.67;86.84082;95296.84;;;;
2021/04/18 05:05:26;;;;;;;29.65;21.3;;;;;;;3.67;86.84082;95296.84;;;;
2021/04/18 05:06:27;;;;;;;29.65;21.3;;;;;;;3.67;86.84082;95296.84;;;;
2021/04/18 05:07:28;;;;;;;29.65;21.3;;;;;;;3.67;86.84082;95296.84;;;;
2021/04/18 05:08:28;;;;;;;29.65;21.3;;;;;;;3.67;86.84082;95296.84;;;;
2021/04/18 05:09:29;;;;;;;29.65;21.3;;;;;;;3.67;86.84082;95296.84;;;;
2021/04/18 05:10:29;;;;;;;29.65;21.3;;;;;;;3.67;86.84082;95296.84;;;;
2021/04/18 05:11:30;;;;;;;29.65;21.3;;;;;;;3.67;86.84082;95296.84;;;;
2021/04/18 05:12:30;;;;;;;29.65;21.3;;;;;;;3.67;86.84082;95296.84;;;;
2021/04/18 05:13:31;;;;;;;29.65;21.3;;;;;;;3.67;86.84082;95296.84;;;;
2021/04/18 05:14:32;;;;;;;30.75;22.5;;;;;;;3.8;87.00195;95293.84;;;;
2021/04/18 05:15:32;;;;;;;30.75;22.5;;;;;;;3.8;87.00195;95293.84;;;;
2021/04/18 05:16:33;;;;;;;30.75;22.5;;;;;;;3.8;87.00195;95293.84;;;;
2021/04/18 05:17:34;;;;;;;30.75;22.5;;;;;;;3.8;87.00195;95293.84;;;;
2021/04/18 05:18:34;;;;;;;30.75;22.5;;;;;;;3.8;87.00195;95293.84;;;;
2021/04/18 05:19:35;;;;;;;30.75;22.5;;;;;;;3.8;87.00195;95293.84;;;;
2021/04/18 05:20:35;;;;;;;30.75;22.5;;;;;;;3.8;87.00195;95293.84;;;;
2021/04/18 05:21:36;;;;;;;30.75;22.5;;;;;;;3.8;87.00195;95293.84;;;;
2021/04/18 05:22:37;;;;;;;30.75;22.5;;;;;;;3.8;87.00195;95293.84;;;;
2021/04/18 05:23:37;;;;;;;30.75;22.5;;;;;;;3.8;87.00195;95293.84;;;;
2021/04/18 05:24:38;;;;;;;30.75;22.5;;;;;;;3.8;87.00195;95293.84;;;;
2021/04/18 05:25:39;;;;;;;29.15;22.4;;;;;;;3.86;86.98535;95307.67;;;;
2021/04/18 05:26:39;;;;;;;29.15;22.4;;;;;;;3.86;86.98535;95307.67;;;;
2021/04/18 05:27:40;;;;;;;29.15;22.4;;;;;;;3.86;86.98535;95307.67;;;;
2021/04/18 05:28:41;;;;;;;29.15;22.4;;;;;;;3.86;86.98535;95307.67;;;;
2021/04/18 05:29:41;;;;;;;29.15;22.4;;;;;;;3.86;86.98535;95307.67;;;;
2021/04/18 05:30:42;;;;;;;29.15;22.4;;;;;;;3.86;86.98535;95307.67;;;;
2021/04/18 05:31:42;;;;;;;29.15;22.4;;;;;;;3.86;86.98535;95307.67;;;;
2021/04/18 05:32:43;;;;;;;29.15;22.4;;;;;;;3.86;86.98535;95307.67;;;;
2021/04/18 05:33:44;;;;;;;29.15;22.4;;;;;;;3.86;86.98535;95307.67;;;;
2021/04/18 05:34:44;;;;;;;29.15;22.4;;;;;;;3.86;86.98535;95307.67;;;;
2021/04/18 05:35:45;;;;;;;30.45;22.5;;;;;;;4.02;87.21777;95308.72;;;;
2021/04/18 05:36:45;;;;;;;30.45;22.5;;;;;;;4.02;87.21777;95308.72;;;;
2021/04/18 05:37:46;;;;;;;30.45;22.5;;;;;;;4.02;87.21777;95308.72;;;;
2021/04/18 05:38:46;;;;;;;30.45;22.5;;;;;;;4.02;87.21777;95308.72;;;;
2021/04/18 05:39:47;;;;;;;30.45;22.5;;;;;;;4.02;87.21777;95308.72;;;;
2021/04/18 05:40:47;;;;;;;30.45;22.5;;;;;;;4.02;87.21777;95308.72;;;;
2021/04/18 05:41:48;;;;;;;30.45;22.5;;;;;;;4.02;87.21777;95308.72;;;;
2021/04/18 05:42:48;;;;;;;30.45;22.5;;;;;;;4.02;87.21777;95308.72;;;;
2021/04/18 05:43:49;;;;;;;30.45;22.5;;;;;;;4.02;87.21777;95308.72;;;;
2021/04/18 05:44:49;;;;;;;30.45;22.5;;;;;;;4.02;87.21777;95308.72;;;;